Time;durP1;ratioP1;P1;durP2;ratioP2;P2;SDS_P1;SDS_P2;PMS_P1;PMS_P2;Temp;Humidity;BMP_temperature;BMP_pressure;BME280_temperature;BME280_humidity;BME280_pressure;Samples;Min_cycle;Max_cycle;Signal;HPM_P1;HPM_P2
2021/07/12 00:00:07;;;;;;;19.88;12.40;;;;;;;;;;5079989;28;20061;-65
2021/07/12 00:02:32;;;;;;;19.90;12.30;;;;;;;;;;5081300;28;20024;-65
2021/07/12 00:04:57;;;;;;;19.47;12.57;;;;;;;;;;5081053;28;20085;-65
2021/07/12 00:07:22;;;;;;;20.03;12.93;;;;;;;;;;5080524;28;20280;-65
2021/07/12 00:09:48;;;;;;;22.20;12.67;;;;;;;;;;5081579;28;20274;-65
2021/07/12 00:12:13;;;;;;;21.08;13.65;;;;;;;;;;5080666;28;20773;-65
2021/07/12 00:14:38;;;;;;;19.60;13.25;;;;;;;;;;5081078;28;20016;-65
2021/07/12 00:17:03;;;;;;;21.70;14.03;;;;;;;;;;5082203;28;20023;-65
2021/07/12 00:19:29;;;;;;;18.77;12.63;;;;;;;;;;5079320;28;20278;-65
2021/07/12 00:21:54;;;;;;;16.33;11.87;;;;;;;;;;5080833;28;20043;-65
2021/07/12 00:24:20;;;;;;;23.67;11.37;;;;;;;;;;5079932;28;20296;-66
2021/07/12 00:26:45;;;;;;;21.38;12.60;;;;;;;;;;5080325;28;20287;-66
2021/07/12 00:29:11;;;;;;;19.63;12.07;;;;;;;;;;5085390;28;20051;-65
2021/07/12 00:31:36;;;;;;;16.07;11.97;;;;;;;;;;5085897;28;20031;-65
2021/07/12 00:34:02;;;;;;;25.37;11.70;;;;;;;;;;5084836;28;20762;-65
2021/07/12 00:36:27;;;;;;;18.35;12.60;;;;;;;;;;5084481;28;20359;-65
2021/07/12 00:38:52;;;;;;;21.13;12.65;;;;;;;;;;5084384;28;20473;-65
2021/07/12 00:41:17;;;;;;;23.47;12.83;;;;;;;;;;5086070;28;20563;-65
2021/07/12 00:43:42;;;;;;;21.40;12.97;;;;;;;;;;5085440;28;20281;-65
2021/07/12 00:46:08;;;;;;;25.30;12.88;;;;;;;;;;5084028;28;20322;-65
2021/07/12 00:48:33;;;;;;;23.10;12.73;;;;;;;;;;5084904;28;20165;-65
2021/07/12 00:50:59;;;;;;;21.95;12.38;;;;;;;;;;5084462;28;20019;-65
2021/07/12 00:53:24;;;;;;;28.80;13.17;;;;;;;;;;5085351;28;20032;-65
2021/07/12 00:55:50;;;;;;;21.90;13.43;;;;;;;;;;5085784;28;20278;-65
2021/07/12 00:58:19;;;;;;;19.90;12.73;;;;;;;;;;5088038;28;20095;-65
2021/07/12 01:00:46;;;;;;;24.47;13.53;;;;;;;;;;5085180;28;20028;-65
2021/07/12 01:03:12;;;;;;;17.40;12.55;;;;;;;;;;5084289;28;20154;-65
2021/07/12 01:05:38;;;;;;;20.35;12.70;;;;;;;;;;5084121;28;20119;-65
2021/07/12 01:08:03;;;;;;;19.55;11.75;;;;;;;;;;5085427;28;20065;-65
2021/07/12 01:10:28;;;;;;;19.50;12.95;;;;;;;;;;5084323;28;20114;-65
2021/07/12 01:12:59;;;;;;;27.88;13.35;;;;;;;;;;5084357;28;20023;-65
2021/07/12 01:15:26;;;;;;;17.95;11.40;;;;;;;;;;5083885;28;20020;-65
2021/07/12 01:18:03;;;;;;;21.77;12.48;;;;;;;;;;5081576;28;20033;-65
2021/07/12 01:20:41;;;;;;;22.33;12.02;;;;;;;;;;5085525;28;20070;-65
2021/07/12 01:23:15;;;;;;;19.30;12.15;;;;;;;;;;5087805;28;20024;-65
2021/07/12 01:25:49;;;;;;;14.60;11.52;;;;;;;;;;5080970;28;20111;-66
2021/07/12 01:28:14;;;;;;;21.65;12.70;;;;;;;;;;5085131;28;20027;-66
2021/07/12 01:30:57;;;;;;;25.65;13.10;;;;;;;;;;5084854;28;20015;-66
2021/07/12 01:33:28;;;;;;;20.95;13.85;;;;;;;;;;5084386;28;20699;-66
2021/07/12 01:36:02;;;;;;;19.83;12.73;;;;;;;;;;5081843;28;20052;-66
2021/07/12 01:38:30;;;;;;;21.95;13.27;;;;;;;;;;5081154;28;20027;-65
2021/07/12 01:41:07;;;;;;;26.80;13.48;;;;;;;;;;5082646;28;20023;-65
2021/07/12 01:43:50;;;;;;;20.65;13.32;;;;;;;;;;5083669;28;20111;-65
2021/07/12 01:46:18;;;;;;;21.77;13.05;;;;;;;;;;5084193;28;20031;-65
2021/07/12 01:48:48;;;;;;;23.67;14.43;;;;;;;;;;5082386;28;20074;-65
2021/07/12 01:51:15;;;;;;;20.08;13.60;;;;;;;;;;5082589;28;20017;-65
2021/07/12 01:53:40;;;;;;;17.02;13.02;;;;;;;;;;5083738;28;20035;-65
2021/07/12 01:56:11;;;;;;;26.70;13.93;;;;;;;;;;5084981;28;20048;-65
2021/07/12 01:58:38;;;;;;;26.92;14.10;;;;;;;;;;5083149;28;20047;-65
2021/07/12 02:01:04;;;;;;;21.42;13.43;;;;;;;;;;5083347;28;20020;-65
2021/07/12 02:03:30;;;;;;;19.52;13.48;;;;;;;;;;5083757;28;20100;-65
2021/07/12 02:05:57;;;;;;;22.42;13.60;;;;;;;;;;5067375;28;20500;-65
2021/07/12 02:08:23;;;;;;;26.55;14.02;;;;;;;;;;5082901;28;20020;-65
2021/07/12 02:10:50;;;;;;;22.65;13.43;;;;;;;;;;5082965;28;20020;-65
2021/07/12 02:13:15;;;;;;;20.92;13.75;;;;;;;;;;5083206;28;20044;-65
2021/07/12 02:15:43;;;;;;;19.00;14.10;;;;;;;;;;5086810;28;20511;-65
2021/07/12 02:18:09;;;;;;;20.38;14.18;;;;;;;;;;5083318;28;20099;-65
2021/07/12 02:20:36;;;;;;;30.23;15.07;;;;;;;;;;5083458;28;20028;-65
2021/07/12 02:23:02;;;;;;;26.25;15.43;;;;;;;;;;5085534;28;20512;-65
2021/07/12 02:25:28;;;;;;;23.48;14.15;;;;;;;;;;5082401;28;20082;-65
2021/07/12 02:27:53;;;;;;;25.83;14.75;;;;;;;;;;5083916;28;20055;-65
2021/07/12 02:30:19;;;;;;;19.02;13.57;;;;;;;;;;5082755;28;20020;-65
2021/07/12 02:32:46;;;;;;;22.58;14.80;;;;;;;;;;5082532;28;20017;-65
2021/07/12 02:35:12;;;;;;;22.77;16.08;;;;;;;;;;5084339;28;20495;-65
2021/07/12 02:37:39;;;;;;;22.80;15.25;;;;;;;;;;5082435;28;20020;-65
2021/07/12 02:40:05;;;;;;;24.33;14.38;;;;;;;;;;5082461;28;20113;-65
2021/07/12 02:42:31;;;;;;;26.20;14.38;;;;;;;;;;5082028;28;20020;-65
2021/07/12 02:44:57;;;;;;;20.73;13.35;;;;;;;;;;5084251;28;20153;-65
2021/07/12 02:47:23;;;;;;;24.25;15.18;;;;;;;;;;5087793;28;20024;-65
2021/07/12 02:49:48;;;;;;;26.13;13.98;;;;;;;;;;5081958;28;20024;-65
2021/07/12 02:52:25;;;;;;;23.33;14.68;;;;;;;;;;5082542;28;20028;-65
2021/07/12 02:54:51;;;;;;;22.20;15.55;;;;;;;;;;5082172;28;20077;-65
2021/07/12 02:57:16;;;;;;;24.42;14.38;;;;;;;;;;5083649;28;20697;-65
2021/07/12 02:59:41;;;;;;;25.92;15.52;;;;;;;;;;5083538;28;20091;-65
2021/07/12 03:02:06;;;;;;;26.50;15.13;;;;;;;;;;5083462;28;20032;-65
2021/07/12 03:04:32;;;;;;;28.97;15.87;;;;;;;;;;5081013;28;20434;-65
2021/07/12 03:06:58;;;;;;;22.90;15.20;;;;;;;;;;5082166;28;20418;-65
2021/07/12 03:09:26;;;;;;;25.73;15.45;;;;;;;;;;5081868;28;20389;-65
2021/07/12 03:11:57;;;;;;;24.33;16.15;;;;;;;;;;5088707;28;20021;-65
2021/07/12 03:14:32;;;;;;;24.73;15.55;;;;;;;;;;5088499;28;20031;-65
2021/07/12 03:16:58;;;;;;;26.88;15.60;;;;;;;;;;5079759;28;20028;-66
2021/07/12 03:19:28;;;;;;;21.10;15.02;;;;;;;;;;5080474;28;20048;-66
2021/07/12 03:21:55;;;;;;;29.95;15.82;;;;;;;;;;5080777;28;20032;-65
2021/07/12 03:24:20;;;;;;;24.05;14.98;;;;;;;;;;5083337;28;20089;-65
2021/07/12 03:26:46;;;;;;;22.77;15.45;;;;;;;;;;5082348;28;20036;-65
2021/07/12 03:29:15;;;;;;;28.70;15.82;;;;;;;;;;5081204;28;20024;-65
2021/07/12 03:31:41;;;;;;;27.33;15.68;;;;;;;;;;5083130;28;20495;-65
2021/07/12 03:34:08;;;;;;;31.27;17.13;;;;;;;;;;5081352;28;20020;-65
2021/07/12 03:36:33;;;;;;;27.42;16.85;;;;;;;;;;5082613;28;20113;-65
2021/07/12 03:38:59;;;;;;;31.30;17.05;;;;;;;;;;5082191;28;20110;-65
2021/07/12 03:41:25;;;;;;;31.33;16.42;;;;;;;;;;5066420;22;20049;-64
2021/07/12 03:43:50;;;;;;;28.33;16.95;;;;;;;;;;5022403;28;20123;-64
2021/07/12 03:46:16;;;;;;;28.55;17.23;;;;;;;;;;5020992;28;20057;-64
2021/07/12 03:48:45;;;;;;;31.15;17.40;;;;;;;;;;5022375;28;20021;-63
2021/07/12 03:51:12;;;;;;;36.78;17.30;;;;;;;;;;5022783;28;20063;-63
2021/07/12 03:53:37;;;;;;;27.40;17.20;;;;;;;;;;5021561;28;20025;-64
2021/07/12 03:56:03;;;;;;;26.73;17.67;;;;;;;;;;5020838;28;20014;-64
2021/07/12 03:58:28;;;;;;;27.13;16.63;;;;;;;;;;5021154;28;20029;-63
2021/07/12 04:00:54;;;;;;;32.00;15.82;;;;;;;;;;5024651;28;20156;-64
2021/07/12 04:03:19;;;;;;;28.45;16.27;;;;;;;;;;5022519;28;20116;-63
2021/07/12 04:05:44;;;;;;;26.95;16.33;;;;;;;;;;5020677;28;20025;-64
2021/07/12 04:08:10;;;;;;;26.90;15.43;;;;;;;;;;5022141;28;20060;-64
2021/07/12 04:10:37;;;;;;;26.63;16.55;;;;;;;;;;5021985;28;20681;-64
2021/07/12 04:13:02;;;;;;;27.10;16.38;;;;;;;;;;5021165;28;20377;-64
2021/07/12 04:15:27;;;;;;;25.65;16.73;;;;;;;;;;5022210;28;20029;-64
2021/07/12 04:17:52;;;;;;;22.43;15.33;;;;;;;;;;5022519;28;20029;-63
2021/07/12 04:20:17;;;;;;;27.03;15.60;;;;;;;;;;5021886;28;20315;-64
2021/07/12 04:22:43;;;;;;;29.10;16.08;;;;;;;;;;5020344;28;20294;-64
2021/07/12 04:25:09;;;;;;;22.73;15.13;;;;;;;;;;5021027;28;20040;-64
2021/07/12 04:27:34;;;;;;;25.95;16.05;;;;;;;;;;5023338;28;20562;-64
2021/07/12 04:29:59;;;;;;;24.00;15.53;;;;;;;;;;5021358;28;20036;-64
2021/07/12 04:32:24;;;;;;;22.37;15.77;;;;;;;;;;5020473;28;20375;-64
2021/07/12 04:34:49;;;;;;;27.20;15.55;;;;;;;;;;5021499;28;20318;-64
2021/07/12 04:37:14;;;;;;;27.07;15.57;;;;;;;;;;5020915;28;20082;-64
2021/07/12 04:39:40;;;;;;;23.60;15.27;;;;;;;;;;5020799;28;20286;-64
2021/07/12 04:42:05;;;;;;;27.58;15.65;;;;;;;;;;5021244;28;20676;-64
2021/07/12 04:44:30;;;;;;;25.33;14.50;;;;;;;;;;5025441;28;20462;-64
2021/07/12 04:46:57;;;;;;;23.98;14.88;;;;;;;;;;5028835;28;20025;-64
2021/07/12 04:49:22;;;;;;;23.85;15.20;;;;;;;;;;5025533;28;20099;-64
2021/07/12 04:51:49;;;;;;;20.83;15.02;;;;;;;;;;5020995;28;20083;-64
2021/07/12 04:54:14;;;;;;;24.38;14.50;;;;;;;;;;5021579;28;20497;-63
2021/07/12 04:56:39;;;;;;;22.90;14.07;;;;;;;;;;5020493;28;20056;-64
2021/07/12 04:59:07;;;;;;;26.83;15.00;;;;;;;;;;5019893;28;20064;-64
2021/07/12 05:01:33;;;;;;;21.85;13.77;;;;;;;;;;5019656;28;20018;-64
2021/07/12 05:04:02;;;;;;;21.30;14.05;;;;;;;;;;5020244;28;20029;-64
2021/07/12 05:06:28;;;;;;;21.77;14.00;;;;;;;;;;5020438;28;20474;-64
2021/07/12 05:08:53;;;;;;;21.17;13.98;;;;;;;;;;5017930;28;20022;-64
2021/07/12 05:11:19;;;;;;;19.25;13.43;;;;;;;;;;5020475;28;20064;-64
2021/07/12 05:13:44;;;;;;;19.88;13.63;;;;;;;;;;5019960;28;20120;-63
2021/07/12 05:16:09;;;;;;;19.40;13.60;;;;;;;;;;5022622;28;20083;-64
2021/07/12 05:18:36;;;;;;;22.77;13.80;;;;;;;;;;5021837;28;20025;-63
2021/07/12 05:21:01;;;;;;;20.00;13.30;;;;;;;;;;5021958;28;20029;-63
2021/07/12 05:23:27;;;;;;;23.75;14.95;;;;;;;;;;5021807;28;20032;-64
2021/07/12 05:25:52;;;;;;;20.97;13.97;;;;;;;;;;5020544;28;20029;-64
2021/07/12 05:28:17;;;;;;;19.73;12.90;;;;;;;;;;5022049;28;20284;-64
2021/07/12 05:30:42;;;;;;;22.33;14.07;;;;;;;;;;5023031;28;20017;-64
2021/07/12 05:33:08;;;;;;;21.97;14.90;;;;;;;;;;5027108;28;20349;-64
2021/07/12 05:35:33;;;;;;;25.15;14.25;;;;;;;;;;5023047;28;20275;-64
2021/07/12 05:37:58;;;;;;;21.57;13.23;;;;;;;;;;5021856;28;20033;-64
2021/07/12 05:40:23;;;;;;;25.83;14.70;;;;;;;;;;5022745;28;20272;-64
2021/07/12 05:42:48;;;;;;;19.98;12.75;;;;;;;;;;5019588;28;20342;-64
2021/07/12 05:45:14;;;;;;;18.50;13.57;;;;;;;;;;5021241;28;20021;-64
2021/07/12 05:47:39;;;;;;;33.38;13.68;;;;;;;;;;5021519;28;20390;-64
2021/07/12 05:50:05;;;;;;;19.60;13.40;;;;;;;;;;5021485;28;20032;-64
2021/07/12 05:52:32;;;;;;;18.95;12.05;;;;;;;;;;5022246;28;20700;-64
2021/07/12 05:54:57;;;;;;;19.63;13.25;;;;;;;;;;5022146;28;20138;-64
2021/07/12 05:57:22;;;;;;;22.02;14.60;;;;;;;;;;5023534;28;20497;-64
2021/07/12 05:59:48;;;;;;;25.60;13.33;;;;;;;;;;5022065;28;20022;-64
2021/07/12 06:02:13;;;;;;;19.23;12.80;;;;;;;;;;5025914;28;20335;-64
2021/07/12 06:04:39;;;;;;;24.27;13.67;;;;;;;;;;5031157;28;20276;-64
2021/07/12 06:07:04;;;;;;;20.33;13.70;;;;;;;;;;5032075;28;20334;-64
2021/07/12 06:09:29;;;;;;;20.50;13.87;;;;;;;;;;5031150;28;20022;-64
2021/07/12 06:11:54;;;;;;;21.87;13.37;;;;;;;;;;5028166;28;20375;-64
2021/07/12 06:14:19;;;;;;;20.37;12.67;;;;;;;;;;5033629;28;20276;-64
2021/07/12 06:16:44;;;;;;;21.27;13.43;;;;;;;;;;5031513;28;20268;-64
2021/07/12 06:19:10;;;;;;;17.30;11.80;;;;;;;;;;5032075;28;20740;-64
2021/07/12 06:21:35;;;;;;;17.50;11.40;;;;;;;;;;5031041;28;20661;-64
2021/07/12 06:24:00;;;;;;;16.43;10.43;;;;;;;;;;5031269;28;20271;-64
2021/07/12 06:26:25;;;;;;;14.00;9.67;;;;;;;;;;5021884;28;20281;-64
2021/07/12 06:28:50;;;;;;;17.20;9.33;;;;;;;;;;5025294;28;20752;-65
2021/07/12 06:31:16;;;;;;;17.85;10.10;;;;;;;;;;5027405;28;20355;-64
2021/07/12 06:33:41;;;;;;;14.00;9.57;;;;;;;;;;5029644;28;20013;-64
2021/07/12 06:36:06;;;;;;;18.73;10.52;;;;;;;;;;5031076;28;20264;-64
2021/07/12 06:38:31;;;;;;;13.65;8.77;;;;;;;;;;5030345;28;20095;-64
2021/07/12 06:40:57;;;;;;;15.23;9.13;;;;;;;;;;5030953;28;20034;-64
2021/07/12 06:43:22;;;;;;;16.08;9.40;;;;;;;;;;5031560;28;20028;-64
2021/07/12 06:45:47;;;;;;;15.85;7.78;;;;;;;;;;5030845;28;20057;-64
2021/07/12 06:48:12;;;;;;;13.13;8.93;;;;;;;;;;5031621;28;20560;-64
2021/07/12 06:50:38;;;;;;;14.53;8.63;;;;;;;;;;5031950;28;20021;-64
2021/07/12 06:53:03;;;;;;;14.45;9.75;;;;;;;;;;5031073;28;20264;-64
2021/07/12 06:55:28;;;;;;;16.98;9.68;;;;;;;;;;5031583;28;20020;-64
2021/07/12 06:57:54;;;;;;;13.40;9.60;;;;;;;;;;5031858;28;20381;-65
2021/07/12 07:00:19;;;;;;;12.40;8.23;;;;;;;;;;5027538;28;21773;-64
2021/07/12 07:02:44;;;;;;;13.13;8.07;;;;;;;;;;5029582;28;20033;-64
2021/07/12 07:05:10;;;;;;;9.18;5.68;;;;;;;;;;5030223;28;20100;-65
2021/07/12 07:07:36;;;;;;;13.45;6.97;;;;;;;;;;5030007;28;20056;-65
2021/07/12 07:10:05;;;;;;;11.63;7.72;;;;;;;;;;5030867;28;20018;-65
2021/07/12 07:12:30;;;;;;;11.07;7.30;;;;;;;;;;5010055;28;20049;-65
2021/07/12 07:14:55;;;;;;;8.70;7.00;;;;;;;;;;5017613;28;20076;-65
2021/07/12 07:17:20;;;;;;;8.30;5.27;;;;;;;;;;5030481;28;20275;-65
2021/07/12 07:19:45;;;;;;;19.30;7.20;;;;;;;;;;5031247;28;20268;-64
2021/07/12 07:22:11;;;;;;;8.05;5.38;;;;;;;;;;5015601;28;20112;-65
2021/07/12 07:24:36;;;;;;;8.67;6.60;;;;;;;;;;5021311;28;20509;-65
2021/07/12 07:27:01;;;;;;;8.67;5.57;;;;;;;;;;5021223;28;20386;-64
2021/07/12 07:29:26;;;;;;;11.07;5.90;;;;;;;;;;5032964;28;20017;-65
2021/07/12 07:31:51;;;;;;;13.02;7.13;;;;;;;;;;5031127;28;20053;-64
2021/07/12 07:34:17;;;;;;;11.50;6.70;;;;;;;;;;5028863;28;20083;-64
2021/07/12 07:36:42;;;;;;;7.97;5.65;;;;;;;;;;5028133;28;20280;-65
2021/07/12 07:39:08;;;;;;;11.77;6.00;;;;;;;;;;5028144;28;20057;-65
2021/07/12 07:41:33;;;;;;;10.68;5.90;;;;;;;;;;5030313;28;20116;-65
2021/07/12 07:43:59;;;;;;;7.97;5.20;;;;;;;;;;5030469;28;20025;-65
2021/07/12 07:46:24;;;;;;;6.75;3.70;;;;;;;;;;5029475;28;20076;-65
2021/07/12 07:48:49;;;;;;;8.27;5.23;;;;;;;;;;5008743;28;20026;-65
2021/07/12 07:51:14;;;;;;;6.83;5.43;;;;;;;;;;5029036;28;20267;-65
2021/07/12 07:53:40;;;;;;;9.50;6.18;;;;;;;;;;5030824;28;20445;-65
2021/07/12 07:56:05;;;;;;;8.20;5.90;;;;;;;;;;5029702;28;20573;-65
2021/07/12 07:58:31;;;;;;;8.07;5.67;;;;;;;;;;5030806;28;20118;-65
2021/07/12 08:00:56;;;;;;;7.90;5.68;;;;;;;;;;5018827;28;20029;-65
2021/07/12 08:03:21;;;;;;;7.17;5.53;;;;;;;;;;5023392;28;20033;-65
2021/07/12 08:05:46;;;;;;;15.17;4.73;;;;;;;;;;5015157;28;20053;-65
2021/07/12 08:08:11;;;;;;;6.90;4.77;;;;;;;;;;5025954;28;20378;-65
2021/07/12 08:10:36;;;;;;;10.53;4.87;;;;;;;;;;5030044;28;20024;-65
2021/07/12 08:13:02;;;;;;;5.17;4.07;;;;;;;;;;5029464;28;20285;-63
2021/07/12 08:15:27;;;;;;;6.60;4.10;;;;;;;;;;5029110;28;20252;-64
2021/07/12 08:17:52;;;;;;;9.70;5.07;;;;;;;;;;5025077;28;20494;-65
2021/07/12 08:20:18;;;;;;;4.47;3.40;;;;;;;;;;5017869;28;20024;-63
2021/07/12 08:22:43;;;;;;;6.22;4.22;;;;;;;;;;5030327;28;20017;-64
2021/07/12 08:25:09;;;;;;;6.63;4.13;;;;;;;;;;5029518;28;20025;-64
2021/07/12 08:27:35;;;;;;;5.30;4.65;;;;;;;;;;5030280;28;20069;-64
2021/07/12 08:30:00;;;;;;;8.50;4.03;;;;;;;;;;5029893;28;20409;-64
2021/07/12 08:32:26;;;;;;;5.03;3.75;;;;;;;;;;5023111;28;20018;-65
2021/07/12 08:34:51;;;;;;;7.37;3.03;;;;;;;;;;5029704;28;20025;-64
2021/07/12 08:37:16;;;;;;;5.18;2.90;;;;;;;;;;5029647;28;20026;-63
2021/07/12 08:39:42;;;;;;;5.38;3.70;;;;;;;;;;5029262;28;20029;-64
2021/07/12 08:42:09;;;;;;;5.43;4.20;;;;;;;;;;5029314;28;20041;-64
2021/07/12 08:44:34;;;;;;;5.05;3.25;;;;;;;;;;5029393;28;20022;-61
2021/07/12 08:47:00;;;;;;;5.93;4.20;;;;;;;;;;5028326;28;20029;-65
2021/07/12 08:49:25;;;;;;;6.47;3.27;;;;;;;;;;5030539;28;20724;-64
2021/07/12 08:51:50;;;;;;;8.20;4.05;;;;;;;;;;5032979;28;20264;-64
2021/07/12 08:54:16;;;;;;;4.17;3.30;;;;;;;;;;5033174;28;20407;-64
2021/07/12 08:56:41;;;;;;;3.90;3.15;;;;;;;;;;5033281;28;20268;-64
2021/07/12 08:59:27;;;;;;;2.87;1.43;;;;;;;;;;5032099;28;20030;-64
2021/07/12 09:02:04;;;;;;;6.00;3.45;;;;;;;;;;5020883;28;20359;-64
2021/07/12 09:04:29;;;;;;;5.53;2.58;;;;;;;;;;5033003;28;20029;-64
2021/07/12 09:07:01;;;;;;;3.93;3.10;;;;;;;;;;5033452;28;20285;-64
2021/07/12 09:09:26;;;;;;;3.00;2.45;;;;;;;;;;5032394;28;20017;-65
2021/07/12 09:11:52;;;;;;;3.73;2.77;;;;;;;;;;5034189;28;20021;-63
2021/07/12 09:14:18;;;;;;;6.63;2.50;;;;;;;;;;5033361;28;20533;-65
2021/07/12 09:16:43;;;;;;;3.28;2.63;;;;;;;;;;5032757;28;20268;-66
2021/07/12 09:19:19;;;;;;;5.78;3.08;;;;;;;;;;5032624;28;20036;-62
2021/07/12 09:21:58;;;;;;;3.05;2.15;;;;;;;;;;5032646;28;20035;-63
2021/07/12 09:24:31;;;;;;;3.28;2.60;;;;;;;;;;5027917;28;20099;-65
2021/07/12 09:27:01;;;;;;;6.10;2.70;;;;;;;;;;5020629;28;20021;-64
2021/07/12 09:29:28;;;;;;;3.83;2.30;;;;;;;;;;5028561;28;20018;-64
2021/07/12 09:31:53;;;;;;;3.35;2.55;;;;;;;;;;5032323;28;20107;-63
2021/07/12 09:34:19;;;;;;;4.18;2.70;;;;;;;;;;5032070;28;20064;-64
2021/07/12 09:36:45;;;;;;;7.95;2.30;;;;;;;;;;5033065;28;20017;-64
2021/07/12 09:39:37;;;;;;;3.70;2.50;;;;;;;;;;5032810;28;20028;-66
2021/07/12 09:42:06;;;;;;;3.60;2.47;;;;;;;;;;4995938;28;20033;-66
2021/07/12 09:44:33;;;;;;;4.45;2.67;;;;;;;;;;5032688;28;20036;-62
2021/07/12 09:47:03;;;;;;;5.20;2.92;;;;;;;;;;5032009;28;20400;-65
2021/07/12 09:49:28;;;;;;;;;;;;;;;;;;5032255;28;20108;-65
2021/07/12 09:51:54;;;;;;;2.90;2.28;;;;;;;;;;5032104;28;20007;-64
2021/07/12 09:54:21;;;;;;;3.28;2.20;;;;;;;;;;5031766;28;20092;-64
2021/07/12 09:56:47;;;;;;;3.40;2.33;;;;;;;;;;5022686;28;20069;-63
2021/07/12 09:59:13;;;;;;;2.67;1.83;;;;;;;;;;5032317;28;20033;-64
2021/07/12 10:01:38;;;;;;;4.53;1.98;;;;;;;;;;5030668;28;20080;-64
2021/07/12 10:04:04;;;;;;;2.40;1.92;;;;;;;;;;5031970;28;20025;-62
2021/07/12 10:06:29;;;;;;;2.78;1.75;;;;;;;;;;5024297;28;20136;-64
2021/07/12 10:08:55;;;;;;;5.67;1.90;;;;;;;;;;5032245;28;20482;-64
2021/07/12 10:11:20;;;;;;;4.10;1.45;;;;;;;;;;5032289;28;20127;-64
2021/07/12 10:13:45;;;;;;;2.63;2.05;;;;;;;;;;5031267;28;20026;-64
2021/07/12 10:16:11;;;;;;;3.70;2.20;;;;;;;;;;5031394;28;20026;-64
2021/07/12 10:18:36;;;;;;;3.78;1.98;;;;;;;;;;5031114;28;20276;-63
2021/07/12 10:21:02;;;;;;;2.57;1.67;;;;;;;;;;5027855;28;20032;-64
2021/07/12 10:23:27;;;;;;;6.13;1.80;;;;;;;;;;5032185;28;20520;-64
2021/07/12 10:25:55;;;;;;;2.30;1.85;;;;;;;;;;5031569;28;20063;-64
2021/07/12 10:28:36;;;;;;;4.22;2.38;;;;;;;;;;5031886;28;20017;-64
2021/07/12 10:31:15;;;;;;;2.30;1.83;;;;;;;;;;5035292;28;20104;-64
2021/07/12 10:33:40;;;;;;;5.85;1.80;;;;;;;;;;5031373;28;20421;-63
2021/07/12 10:36:07;;;;;;;4.00;2.00;;;;;;;;;;5030885;28;20070;-64
2021/07/12 10:38:40;;;;;;;3.97;1.65;;;;;;;;;;5029669;28;20260;-65
2021/07/12 10:41:22;;;;;;;2.47;1.92;;;;;;;;;;5031373;28;20026;-65
2021/07/12 10:43:47;;;;;;;2.53;2.13;;;;;;;;;;5021400;28;20022;-63
2021/07/12 10:46:37;;;;;;;2.40;1.73;;;;;;;;;;5031178;28;20022;-64
2021/07/12 10:49:04;;;;;;;3.55;1.98;;;;;;;;;;5031607;28;20651;-64
2021/07/12 10:51:40;;;;;;;6.25;2.20;;;;;;;;;;5031454;28;20025;-63
2021/07/12 10:54:07;;;;;;;3.58;1.95;;;;;;;;;;5017392;28;20014;-64
2021/07/12 10:56:45;;;;;;;7.20;2.17;;;;;;;;;;5031146;28;20029;-64
2021/07/12 10:59:30;;;;;;;3.22;2.13;;;;;;;;;;5030217;28;20065;-64
2021/07/12 11:01:56;;;;;;;2.70;2.00;;;;;;;;;;5030410;28;20021;-64
2021/07/12 11:04:37;;;;;;;3.15;2.53;;;;;;;;;;5030796;28;20029;-64
2021/07/12 11:07:10;;;;;;;3.20;1.88;;;;;;;;;;5011682;28;20067;-64
2021/07/12 11:09:47;;;;;;;3.80;2.00;;;;;;;;;;5012958;28;20450;-64
2021/07/12 11:12:28;;;;;;;3.28;1.85;;;;;;;;;;5025286;28;20028;-64
2021/07/12 11:15:11;;;;;;;7.65;3.45;;;;;;;;;;5030456;28;20474;-64
2021/07/12 11:17:55;;;;;;;2.17;1.13;;;;;;;;;;5031632;28;20029;-64
2021/07/12 11:20:39;;;;;;;1.92;1.60;;;;;;;;;;5030964;28;20025;-63
2021/07/12 11:23:04;;;;;;;2.65;2.10;;;;;;;;;;5019825;28;20508;-63
2021/07/12 11:25:43;;;;;;;2.87;1.70;;;;;;;;;;5029470;28;20030;-65
2021/07/12 11:28:11;;;;;;;2.35;1.75;;;;;;;;;;5029235;28;20756;-64
2021/07/12 11:30:37;;;;;;;3.65;2.15;;;;;;;;;;5030993;28;20386;-63
2021/07/12 11:33:02;;;;;;;3.97;2.72;;;;;;;;;;5030686;28;20028;-65
2021/07/12 11:35:27;;;;;;;1.83;1.45;;;;;;;;;;5030198;28;20014;-64
2021/07/12 11:37:59;;;;;;;2.83;1.90;;;;;;;;;;5030610;28;20021;-63
2021/07/12 11:40:25;;;;;;;3.53;2.20;;;;;;;;;;5024219;28;20033;-63
2021/07/12 11:42:50;;;;;;;2.65;1.80;;;;;;;;;;5030662;28;20029;-64
2021/07/12 11:45:17;;;;;;;5.90;2.50;;;;;;;;;;5030114;28;20056;-64
2021/07/12 11:47:44;;;;;;;2.60;2.10;;;;;;;;;;5030325;28;20313;-64
2021/07/12 11:50:09;;;;;;;2.58;2.03;;;;;;;;;;5030065;28;20021;-64
2021/07/12 11:52:36;;;;;;;2.47;2.10;;;;;;;;;;5029869;28;20458;-62
2021/07/12 11:55:01;;;;;;;3.15;2.38;;;;;;;;;;5029925;28;20030;-63
2021/07/12 11:57:26;;;;;;;3.73;2.13;;;;;;;;;;5030059;28;20228;-64
2021/07/12 11:59:51;;;;;;;5.33;2.00;;;;;;;;;;5030592;28;20044;-63
2021/07/12 12:02:17;;;;;;;6.13;2.38;;;;;;;;;;5019189;28;20279;-64
2021/07/12 12:04:46;;;;;;;2.75;2.03;;;;;;;;;;5030059;28;20478;-64
2021/07/12 12:07:22;;;;;;;4.03;2.47;;;;;;;;;;5030419;28;20025;-64
2021/07/12 12:10:07;;;;;;;5.85;2.15;;;;;;;;;;5030331;28;20465;-65
2021/07/12 12:12:33;;;;;;;3.03;1.92;;;;;;;;;;5029854;28;20053;-64
2021/07/12 12:14:59;;;;;;;2.70;1.83;;;;;;;;;;5028753;28;20426;-63
2021/07/12 12:17:25;;;;;;;2.72;2.15;;;;;;;;;;5030079;28;20071;-64
2021/07/12 12:20:00;;;;;;;5.35;2.03;;;;;;;;;;5030494;28;20025;-63
2021/07/12 12:22:25;;;;;;;3.42;2.35;;;;;;;;;;5029424;28;20021;-64
2021/07/12 12:24:52;;;;;;;6.10;2.53;;;;;;;;;;5028477;28;20543;-63
2021/07/12 12:27:17;;;;;;;6.00;2.55;;;;;;;;;;5030020;28;20079;-64
2021/07/12 12:29:42;;;;;;;4.97;1.90;;;;;;;;;;5029282;28;20017;-64
2021/07/12 12:32:07;;;;;;;2.95;2.15;;;;;;;;;;5029116;28;20017;-63
2021/07/12 12:34:33;;;;;;;2.70;2.17;;;;;;;;;;5029986;28;20029;-62
2021/07/12 12:36:58;;;;;;;4.38;1.95;;;;;;;;;;5029296;28;20115;-65
2021/07/12 12:39:23;;;;;;;8.43;2.38;;;;;;;;;;5029505;28;20393;-65
2021/07/12 12:41:54;;;;;;;3.07;2.27;;;;;;;;;;5029529;28;20479;-65
2021/07/12 12:44:22;;;;;;;3.38;2.00;;;;;;;;;;5029563;28;20029;-64
2021/07/12 12:46:57;;;;;;;2.65;1.92;;;;;;;;;;5028022;28;20455;-64
2021/07/12 12:49:23;;;;;;;2.45;1.80;;;;;;;;;;5029262;28;20036;-63
2021/07/12 12:51:52;;;;;;;2.50;1.88;;;;;;;;;;5029314;28;20045;-65
2021/07/12 12:54:18;;;;;;;5.68;2.60;;;;;;;;;;5029428;28;20027;-65
2021/07/12 12:56:50;;;;;;;2.45;1.55;;;;;;;;;;5027387;28;20025;-65
2021/07/12 12:59:16;;;;;;;3.70;1.95;;;;;;;;;;5029379;28;20108;-65
2021/07/12 13:01:43;;;;;;;5.85;2.15;;;;;;;;;;5029475;28;20033;-65
2021/07/12 13:04:14;;;;;;;1.95;1.60;;;;;;;;;;5028815;28;20032;-65
2021/07/12 13:06:59;;;;;;;3.65;1.55;;;;;;;;;;5019125;28;20029;-65
2021/07/12 13:09:32;;;;;;;3.65;2.20;;;;;;;;;;5016221;28;20029;-65
2021/07/12 13:12:13;;;;;;;2.72;1.70;;;;;;;;;;5029920;28;20080;-65
2021/07/12 13:14:42;;;;;;;4.00;2.10;;;;;;;;;;5029326;28;20099;-65
2021/07/12 13:17:08;;;;;;;4.00;2.45;;;;;;;;;;5028795;28;20026;-65
2021/07/12 13:19:33;;;;;;;6.18;1.75;;;;;;;;;;5025090;28;20488;-65
2021/07/12 13:21:59;;;;;;;4.78;1.83;;;;;;;;;;5027139;28;20116;-66
2021/07/12 13:24:44;;;;;;;1.20;1.10;;;;;;;;;;5028796;28;20013;-65
2021/07/12 13:27:09;;;;;;;4.05;1.40;;;;;;;;;;5023055;28;20028;-65
2021/07/12 13:29:35;;;;;;;2.25;1.85;;;;;;;;;;5029728;28;20084;-65
2021/07/12 13:32:00;;;;;;;2.13;1.60;;;;;;;;;;5028940;28;20017;-65
2021/07/12 13:34:25;;;;;;;2.10;1.83;;;;;;;;;;5039404;28;20270;-66
2021/07/12 13:36:50;;;;;;;7.00;1.87;;;;;;;;;;5042340;28;20060;-65
2021/07/12 13:39:15;;;;;;;17.37;2.10;;;;;;;;;;5032136;28;20832;-65
2021/07/12 13:41:41;;;;;;;13.67;2.77;;;;;;;;;;5031839;28;20287;-65
2021/07/12 13:44:06;;;;;;;5.40;1.67;;;;;;;;;;5032368;28;20083;-65
2021/07/12 13:46:31;;;;;;;5.35;1.67;;;;;;;;;;5032595;28;20509;-66
2021/07/12 13:48:56;;;;;;;5.33;2.00;;;;;;;;;;5033042;28;20351;-65
2021/07/12 13:51:23;;;;;;;2.70;1.37;;;;;;;;;;5032436;28;20755;-65
2021/07/12 13:53:48;;;;;;;4.70;1.35;;;;;;;;;;5031340;28;20044;-66
2021/07/12 13:56:13;;;;;;;2.60;1.57;;;;;;;;;;5029293;28;20497;-65
2021/07/12 13:58:39;;;;;;;2.70;1.70;;;;;;;;;;5016309;28;20329;-66
2021/07/12 14:01:04;;;;;;;2.73;1.90;;;;;;;;;;5031572;28;20033;-65
2021/07/12 14:03:30;;;;;;;2.90;1.43;;;;;;;;;;5032159;28;20474;-65
2021/07/12 14:05:56;;;;;;;4.18;1.60;;;;;;;;;;5031636;28;20288;-65
2021/07/12 14:08:21;;;;;;;5.47;1.80;;;;;;;;;;5032405;28;20018;-65
2021/07/12 14:10:47;;;;;;;1.77;1.67;;;;;;;;;;5030903;28;20160;-65
2021/07/12 14:13:12;;;;;;;2.80;1.30;;;;;;;;;;5031784;28;20022;-65
2021/07/12 14:15:37;;;;;;;3.23;1.57;;;;;;;;;;5031140;28;20488;-66
2021/07/12 14:18:03;;;;;;;4.00;2.00;;;;;;;;;;5020640;28;20749;-66
2021/07/12 14:20:28;;;;;;;2.90;1.92;;;;;;;;;;5020882;28;20025;-66
2021/07/12 14:22:53;;;;;;;2.38;1.80;;;;;;;;;;5026447;28;20044;-65
2021/07/12 14:25:19;;;;;;;9.80;1.83;;;;;;;;;;5030334;28;20025;-65
2021/07/12 14:27:47;;;;;;;3.13;1.70;;;;;;;;;;5024252;28;20307;-66
2021/07/12 14:30:13;;;;;;;3.80;1.77;;;;;;;;;;5027179;28;20112;-66